createdAt,value
2019-06-08T00:00:33.886Z,6.90
2019-06-08T00:03:02.553Z,7.00
2019-06-08T00:05:31.254Z,7.53
2019-06-08T00:07:59.648Z,6.40
2019-06-08T00:10:28.019Z,6.60
2019-06-08T00:12:56.422Z,6.70
2019-06-08T00:15:24.822Z,6.80
2019-06-08T00:17:53.482Z,6.57
2019-06-08T00:20:21.976Z,6.50
2019-06-08T00:22:50.351Z,6.80
2019-06-08T00:25:20.517Z,7.27
2019-06-08T00:27:49.462Z,6.70
2019-06-08T00:30:18.455Z,6.80
2019-06-08T00:32:46.842Z,6.33
2019-06-08T00:35:16.560Z,6.13
2019-06-08T00:37:45.050Z,6.13
2019-06-08T00:40:14.783Z,6.17
2019-06-08T00:42:43.354Z,6.60
2019-06-08T00:45:13.102Z,6.37
2019-06-08T00:47:47.482Z,6.63
2019-06-08T00:50:12.345Z,6.30
2019-06-08T00:52:40.722Z,5.90
2019-06-08T00:55:09.664Z,6.47
2019-06-08T00:57:38.545Z,6.30
2019-06-08T01:00:10.561Z,6.40
2019-06-08T01:02:38.183Z,6.60
2019-06-08T01:05:07.995Z,6.10
2019-06-08T01:07:36.382Z,6.03
2019-06-08T01:10:07.031Z,6.60
2019-06-08T01:12:35.709Z,6.50
2019-06-08T01:15:07.577Z,6.10
2019-06-08T01:17:35.957Z,6.53
2019-06-08T01:20:07.445Z,6.50
2019-06-08T01:22:35.991Z,6.60
2019-06-08T01:25:05.850Z,6.30
2019-06-08T01:27:34.494Z,6.07
2019-06-08T01:30:03.957Z,5.80
2019-06-08T01:32:32.426Z,5.90
2019-06-08T01:35:00.813Z,6.30
2019-06-08T01:37:29.208Z,5.90
2019-06-08T01:39:57.606Z,5.97
2019-06-08T01:42:26.008Z,6.20
2019-06-08T01:44:54.408Z,6.43
2019-06-08T01:47:24.518Z,6.20
2019-06-08T01:49:53.067Z,6.00
2019-06-08T01:52:22.513Z,6.30
2019-06-08T01:54:51.213Z,6.23
2019-06-08T01:57:19.625Z,6.03
2019-06-08T01:59:48.024Z,6.30
2019-06-08T02:02:16.415Z,5.77
2019-06-08T02:04:44.861Z,6.13
2019-06-08T02:07:13.376Z,5.53
2019-06-08T02:09:42.024Z,6.20
2019-06-08T02:12:10.410Z,6.00
2019-06-08T02:14:39.104Z,6.20
2019-06-08T02:17:07.782Z,5.93
2019-06-08T02:19:36.174Z,6.53
2019-06-08T02:22:04.556Z,6.13
2019-06-08T02:24:33.389Z,6.00
2019-06-08T02:27:01.739Z,6.00
2019-06-08T02:29:31.332Z,6.30
2019-06-08T02:32:00.355Z,6.20
2019-06-08T02:34:30.565Z,6.07
2019-06-08T02:36:58.876Z,6.27
2019-06-08T02:39:28.476Z,5.90
2019-06-08T02:41:56.931Z,6.50
2019-06-08T02:44:25.353Z,5.60
2019-06-08T02:46:54.012Z,6.10
2019-06-08T02:49:22.400Z,6.20
2019-06-08T02:51:51.135Z,6.50
2019-06-08T02:54:19.991Z,5.50
2019-06-08T02:56:51.400Z,6.37
2019-06-08T02:59:22.840Z,6.10
2019-06-08T03:01:52.804Z,6.73
2019-06-08T03:04:24.006Z,5.80
2019-06-08T03:06:53.448Z,6.20
2019-06-08T03:09:23.617Z,6.37
2019-06-08T03:11:55.339Z,6.60
2019-06-08T03:14:27.656Z,6.90
2019-06-08T03:16:56.390Z,6.60
2019-06-08T03:19:24.745Z,7.40
2019-06-08T03:21:53.147Z,6.60
2019-06-08T03:24:21.532Z,6.57
2019-06-08T03:26:49.961Z,6.53
2019-06-08T03:29:18.339Z,5.97
2019-06-08T03:31:55.058Z,6.70
2019-06-08T03:34:16.878Z,6.30
2019-06-08T03:36:54.493Z,6.97
2019-06-08T03:39:15.451Z,6.20
2019-06-08T03:41:45.245Z,6.30
2019-06-08T03:44:13.824Z,7.13
2019-06-08T03:46:44.072Z,6.03
2019-06-08T03:49:12.553Z,7.40
2019-06-08T03:51:45.780Z,6.27
2019-06-08T03:54:11.419Z,6.10
2019-06-08T03:56:40.188Z,5.83
2019-06-08T03:59:09.924Z,6.30
2019-06-08T04:01:39.788Z,6.07
2019-06-08T04:04:08.991Z,6.57
2019-06-08T04:06:37.783Z,6.27
2019-06-08T04:09:07.708Z,6.10
2019-06-08T04:11:37.775Z,6.63
2019-06-08T04:14:06.454Z,6.67
2019-06-08T04:16:34.830Z,6.13
2019-06-08T04:19:03.222Z,6.30
2019-06-08T04:21:31.868Z,6.30
2019-06-08T04:24:00.252Z,6.50
2019-06-08T04:26:28.966Z,6.00
2019-06-08T04:28:57.359Z,6.27
2019-06-08T04:31:26.122Z,6.60
2019-06-08T04:33:54.513Z,6.47
2019-06-08T04:36:22.915Z,6.37
2019-06-08T04:38:51.311Z,6.10
2019-06-08T04:41:19.990Z,6.20
2019-06-08T04:43:49.903Z,6.00
2019-06-08T04:46:18.608Z,6.10
2019-06-08T04:48:50.062Z,6.20
2019-06-08T04:51:18.589Z,6.70
2019-06-08T04:53:47.307Z,6.97
2019-06-08T04:56:17.432Z,6.57
2019-06-08T04:58:46.814Z,6.63
2019-06-08T05:01:16.237Z,6.07
2019-06-08T05:03:45.597Z,6.20
2019-06-08T05:06:14.771Z,6.47
2019-06-08T05:08:43.238Z,6.40
2019-06-08T05:11:11.624Z,6.63
2019-06-08T05:13:41.094Z,7.00
2019-06-08T05:16:09.597Z,6.50
2019-06-08T05:18:39.191Z,6.70
2019-06-08T05:21:07.692Z,6.97
2019-06-08T05:23:36.076Z,6.50
2019-06-08T05:26:04.995Z,6.97
2019-06-08T05:28:33.382Z,7.23
2019-06-08T05:31:01.846Z,6.23
2019-06-08T05:33:30.541Z,6.40
2019-06-08T05:35:58.930Z,6.60
2019-06-08T05:38:27.328Z,6.40
2019-06-08T05:40:55.710Z,6.17
2019-06-08T05:43:24.106Z,5.77
2019-06-08T05:45:52.489Z,6.13
2019-06-08T05:48:20.885Z,6.30
2019-06-08T05:51:00.198Z,6.00
2019-06-08T05:53:19.422Z,6.13
2019-06-08T05:55:48.041Z,6.13
2019-06-08T05:58:16.422Z,6.10
2019-06-08T06:00:46.257Z,6.30
2019-06-08T06:03:14.691Z,6.47
2019-06-08T06:05:44.285Z,6.30
2019-06-08T06:08:18.864Z,5.90
2019-06-08T06:10:42.964Z,6.20
2019-06-08T06:13:11.367Z,6.20
2019-06-08T06:15:40.968Z,6.57
2019-06-08T06:18:09.435Z,6.60
2019-06-08T06:20:37.828Z,6.70
2019-06-08T06:23:06.321Z,6.53
2019-06-08T06:25:34.972Z,6.80
2019-06-08T06:28:06.198Z,6.60
2019-06-08T06:30:33.512Z,6.60
2019-06-08T06:33:01.906Z,6.40
2019-06-08T06:35:30.327Z,6.30
2019-06-08T06:37:58.730Z,6.37
2019-06-08T06:40:27.128Z,6.90
2019-06-08T06:42:55.547Z,6.50
2019-06-08T06:45:24.207Z,6.70
2019-06-08T06:47:52.787Z,5.97
2019-06-08T06:50:21.184Z,6.30
2019-06-08T06:52:50.769Z,6.60
2019-06-08T06:55:19.136Z,6.60
2019-06-08T06:57:47.580Z,7.07
2019-06-08T07:00:19.301Z,7.13
2019-06-08T07:02:47.699Z,7.60
2019-06-08T07:05:16.159Z,6.53
2019-06-08T07:07:45.896Z,5.80
2019-06-08T07:10:15.127Z,6.60
2019-06-08T07:12:44.456Z,6.53
2019-06-08T07:15:16.270Z,6.40
2019-06-08T07:17:45.958Z,6.40
2019-06-08T07:20:14.958Z,5.97
2019-06-08T07:22:43.381Z,6.57
2019-06-08T07:25:12.104Z,6.10
2019-06-08T07:27:40.831Z,6.50
2019-06-08T07:30:09.581Z,5.80
2019-06-08T07:32:38.320Z,6.00
2019-06-08T07:35:11.451Z,6.70
2019-06-08T07:37:45.555Z,5.90
2019-06-08T07:40:14.502Z,6.57
2019-06-08T07:42:42.904Z,7.13
2019-06-08T07:45:13.575Z,5.70
2019-06-08T07:47:41.929Z,6.00
2019-06-08T07:50:10.660Z,6.60
2019-06-08T07:52:42.409Z,6.00
2019-06-08T07:55:11.458Z,6.37
2019-06-08T07:57:39.863Z,6.33
2019-06-08T08:00:09.791Z,5.50
2019-06-08T08:02:38.413Z,6.00
2019-06-08T08:05:09.607Z,6.20
2019-06-08T08:07:39.585Z,6.40
2019-06-08T08:10:10.144Z,6.33
2019-06-08T08:12:38.623Z,7.37
2019-06-08T08:15:08.768Z,6.70
2019-06-08T08:17:45.955Z,6.10
2019-06-08T08:20:15.027Z,6.30
2019-06-08T08:22:43.488Z,6.10
2019-06-08T08:25:12.109Z,6.23
2019-06-08T08:27:40.499Z,6.40
2019-06-08T08:30:09.516Z,6.60
2019-06-08T08:32:38.232Z,6.50
2019-06-08T08:35:08.880Z,6.20
2019-06-08T08:37:38.284Z,7.00
2019-06-08T08:40:08.453Z,7.20
2019-06-08T08:42:38.741Z,6.50
2019-06-08T08:45:08.786Z,6.90
2019-06-08T08:47:38.671Z,6.80
2019-06-08T08:50:10.127Z,6.70
2019-06-08T08:52:40.893Z,6.80
2019-06-08T08:55:08.945Z,6.90
2019-06-08T08:57:38.546Z,6.03
2019-06-08T09:00:08.901Z,6.57
2019-06-08T09:02:37.516Z,6.70
2019-06-08T09:05:08.379Z,6.90
2019-06-08T09:07:38.508Z,6.47
2019-06-08T09:10:11.291Z,7.10
2019-06-08T09:12:38.911Z,6.50
2019-06-08T09:15:08.591Z,6.63
2019-06-08T09:17:38.816Z,5.90
2019-06-08T09:20:11.021Z,6.50
2019-06-08T09:22:52.452Z,7.50
2019-06-08T09:25:10.572Z,6.90
2019-06-08T09:27:39.520Z,6.53
2019-06-08T09:30:08.623Z,6.80
2019-06-08T09:32:38.193Z,6.80
2019-06-08T09:35:09.060Z,7.07
2019-06-08T09:37:37.618Z,6.10
2019-06-08T09:40:06.544Z,7.10
2019-06-08T09:42:34.937Z,7.27
2019-06-08T09:45:05.570Z,6.60
2019-06-08T09:47:34.869Z,6.47
2019-06-08T09:50:05.690Z,7.47
2019-06-08T09:52:34.858Z,7.67
2019-06-08T09:55:05.021Z,6.70
2019-06-08T09:57:33.452Z,6.43
2019-06-08T10:00:08.650Z,6.23
2019-06-08T10:02:31.971Z,6.53
2019-06-08T10:05:02.427Z,6.23
2019-06-08T10:07:31.334Z,6.20
2019-06-08T10:10:02.532Z,5.80
2019-06-08T10:12:30.051Z,6.30
2019-06-08T10:14:58.766Z,6.23
2019-06-08T10:17:27.908Z,6.50
2019-06-08T10:19:59.261Z,6.47
2019-06-08T10:22:28.241Z,6.80
2019-06-08T10:24:58.025Z,6.63
2019-06-08T10:27:28.353Z,7.03
2019-06-08T10:29:59.994Z,6.33
2019-06-08T10:32:28.192Z,6.40
2019-06-08T10:34:59.978Z,6.20
2019-06-08T10:37:28.380Z,7.30
2019-06-08T10:40:00.647Z,6.40
2019-06-08T10:42:27.491Z,6.30
2019-06-08T10:45:02.369Z,6.20
2019-06-08T10:47:29.546Z,6.07
2019-06-08T10:49:59.525Z,6.30
2019-06-08T10:52:28.175Z,6.87
2019-06-08T10:54:59.212Z,6.97
2019-06-08T10:57:27.990Z,6.93
2019-06-08T10:59:58.783Z,6.60
2019-06-08T11:02:30.782Z,6.77
2019-06-08T11:05:04.660Z,6.77
2019-06-08T11:07:29.571Z,7.87
2019-06-08T11:09:58.743Z,7.47
2019-06-08T11:12:28.468Z,7.00
2019-06-08T11:14:58.364Z,7.10
2019-06-08T11:17:27.929Z,6.70
2019-06-08T11:20:04.795Z,6.60
2019-06-08T11:22:34.455Z,7.20
2019-06-08T11:25:05.932Z,7.57
2019-06-08T11:27:34.433Z,7.10
2019-06-08T11:30:20.458Z,6.43
2019-06-08T11:32:42.903Z,6.50
2019-06-08T11:35:12.630Z,6.80
2019-06-08T11:37:41.317Z,7.23
2019-06-08T11:40:12.317Z,7.23
2019-06-08T11:42:40.528Z,7.13
2019-06-08T11:45:12.735Z,6.60
2019-06-08T11:47:58.430Z,6.70
2019-06-08T11:50:42.251Z,7.70
2019-06-08T11:53:14.406Z,7.20
2019-06-08T11:55:43.551Z,6.70
2019-06-08T11:58:13.757Z,6.77
2019-06-08T12:01:03.049Z,7.70
2019-06-08T12:03:31.509Z,6.83
2019-06-08T12:06:00.003Z,6.87
2019-06-08T12:08:28.751Z,6.87
2019-06-08T12:11:01.270Z,7.00
2019-06-08T12:13:27.898Z,7.47
2019-06-08T12:15:58.713Z,7.67
2019-06-08T12:18:27.831Z,7.13
2019-06-08T12:20:58.401Z,7.50
2019-06-08T12:23:27.051Z,7.77
2019-06-08T12:25:55.420Z,6.90
2019-06-08T12:28:23.799Z,7.13
2019-06-08T12:30:55.278Z,7.57
2019-06-08T12:33:23.887Z,7.67
2019-06-08T12:35:52.402Z,7.40
2019-06-08T12:38:20.839Z,7.87
2019-06-08T12:40:49.233Z,7.87
2019-06-08T12:43:19.826Z,7.37
2019-06-08T12:45:47.833Z,7.43
2019-06-08T12:48:20.432Z,7.67
2019-06-08T12:50:47.832Z,8.27
2019-06-08T12:53:20.735Z,7.70
2019-06-08T12:55:47.550Z,7.77
2019-06-08T12:58:21.823Z,7.17
2019-06-08T13:00:48.306Z,7.60
2019-06-08T13:03:18.778Z,7.70
2019-06-08T13:05:47.399Z,7.67
2019-06-08T13:08:15.780Z,7.70
2019-06-08T13:10:44.900Z,7.93
2019-06-08T13:13:14.434Z,7.43
2019-06-08T13:15:48.912Z,9.10
2019-06-08T13:18:19.814Z,7.13
2019-06-08T13:20:51.478Z,7.30
2019-06-08T13:23:19.608Z,8.00
2019-06-08T13:25:48.135Z,8.20
2019-06-08T13:28:19.210Z,7.50
2019-06-08T13:30:47.852Z,8.53
2019-06-08T13:33:16.406Z,8.10
2019-06-08T13:35:44.830Z,7.83
2019-06-08T13:38:13.211Z,7.97
2019-06-08T13:40:41.607Z,7.23
2019-06-08T13:43:11.239Z,7.27
2019-06-08T13:45:39.711Z,6.77
2019-06-08T13:48:12.009Z,7.37
2019-06-08T13:50:44.010Z,7.70
2019-06-08T13:53:14.568Z,6.87
2019-06-08T13:55:53.296Z,7.20
2019-06-08T13:58:13.674Z,7.07
2019-06-08T14:00:42.083Z,7.80
2019-06-08T14:03:10.742Z,7.43
2019-06-08T14:05:39.291Z,7.70
2019-06-08T14:08:10.623Z,8.37
2019-06-08T14:10:39.477Z,6.73
2019-06-08T14:13:08.324Z,8.30
2019-06-08T14:15:37.933Z,7.40
2019-06-08T14:18:08.898Z,7.60
2019-06-08T14:20:38.543Z,7.80
2019-06-08T14:23:09.194Z,7.60
2019-06-08T14:25:50.160Z,8.23
2019-06-08T14:28:08.936Z,8.00
2019-06-08T14:30:37.905Z,7.40
2019-06-08T14:33:08.239Z,7.20
2019-06-08T14:35:36.503Z,7.43
2019-06-08T14:38:04.902Z,7.23
2019-06-08T14:40:33.293Z,7.67
2019-06-08T14:43:01.672Z,7.80
2019-06-08T14:45:31.129Z,7.63
2019-06-08T14:47:59.753Z,7.43
2019-06-08T14:50:30.684Z,7.20
2019-06-08T14:52:59.175Z,6.70
2019-06-08T14:55:32.089Z,7.53
2019-06-08T14:57:58.281Z,8.33
2019-06-08T15:00:27.770Z,7.80
2019-06-08T15:02:58.958Z,7.97
2019-06-08T15:05:30.695Z,7.67
2019-06-08T15:08:08.374Z,7.00
2019-06-08T15:10:43.016Z,7.00
2019-06-08T15:13:11.898Z,7.00
2019-06-08T15:15:40.350Z,7.90
2019-06-08T15:18:11.057Z,7.70
2019-06-08T15:20:38.929Z,7.00
2019-06-08T15:23:08.525Z,7.47
2019-06-08T15:25:38.718Z,7.37
2019-06-08T15:28:08.183Z,7.80
2019-06-08T15:30:38.053Z,8.57
2019-06-08T15:33:06.671Z,8.70
2019-06-08T15:35:37.506Z,8.00
2019-06-08T15:38:05.385Z,8.47
2019-06-08T15:40:33.802Z,8.47
2019-06-08T15:43:02.281Z,7.80
2019-06-08T15:45:32.893Z,7.53
2019-06-08T15:48:01.383Z,7.40
2019-06-08T15:50:30.662Z,6.50
2019-06-08T15:53:00.104Z,6.63
2019-06-08T15:55:31.286Z,6.83
2019-06-08T15:57:59.033Z,7.10
2019-06-08T16:00:32.554Z,7.63
2019-06-08T16:02:58.242Z,8.10
2019-06-08T16:05:27.727Z,6.80
2019-06-08T16:07:56.299Z,7.37
2019-06-08T16:10:26.190Z,7.63
2019-06-08T16:12:54.696Z,6.83
2019-06-08T16:15:23.081Z,7.03
2019-06-08T16:17:51.726Z,6.60
2019-06-08T16:20:20.425Z,7.00
2019-06-08T16:22:48.803Z,7.13
2019-06-08T16:25:17.291Z,7.10
2019-06-08T16:27:45.667Z,6.90
2019-06-08T16:30:16.813Z,7.53
2019-06-08T16:32:45.255Z,6.53
2019-06-08T16:35:13.710Z,6.90
2019-06-08T16:37:42.119Z,7.13
2019-06-08T16:40:11.172Z,6.63
2019-06-08T16:42:39.574Z,7.30
2019-06-08T16:45:09.057Z,7.43
2019-06-08T16:47:43.316Z,7.10
2019-06-08T16:50:24.099Z,6.30
2019-06-08T16:52:41.861Z,7.17
2019-06-08T16:55:10.583Z,7.07
2019-06-08T16:57:41.071Z,7.00
2019-06-08T17:02:39.637Z,6.40
2019-06-08T17:05:08.191Z,6.87
2019-06-08T17:07:41.086Z,6.80
2019-06-08T17:10:09.615Z,7.40
2019-06-08T17:12:40.122Z,7.33
2019-06-08T17:15:08.835Z,7.33
2019-06-08T17:17:40.399Z,7.67
2019-06-08T17:20:09.737Z,7.10
2019-06-08T17:22:38.801Z,7.10
2019-06-08T17:25:09.506Z,6.53
2019-06-08T17:27:38.975Z,6.63
2019-06-08T17:30:08.974Z,7.50
2019-06-08T17:32:40.553Z,7.80
2019-06-08T17:35:10.107Z,7.10
2019-06-08T17:37:39.965Z,7.30
2019-06-08T17:40:09.994Z,8.50
2019-06-08T17:42:39.557Z,8.67
2019-06-08T17:45:08.988Z,7.43
2019-06-08T17:47:38.508Z,7.93
2019-06-08T17:50:07.475Z,7.50
2019-06-08T17:52:37.052Z,7.77
2019-06-08T17:55:09.817Z,8.53
2019-06-08T17:57:48.496Z,7.60
2019-06-08T18:00:11.225Z,8.27
2019-06-08T18:02:43.304Z,6.50
2019-06-08T18:05:10.532Z,6.57
2019-06-08T18:07:42.287Z,7.20
2019-06-08T18:10:13.392Z,6.83
2019-06-08T18:12:49.048Z,6.40
2019-06-08T18:15:18.391Z,7.17
2019-06-08T18:17:57.699Z,7.10
2019-06-08T18:20:28.238Z,6.73
2019-06-08T18:22:57.800Z,7.10
2019-06-08T18:25:27.866Z,7.07
2019-06-08T18:28:07.164Z,7.40
2019-06-08T18:30:27.695Z,7.03
2019-06-08T18:32:58.039Z,6.43
2019-06-08T18:35:27.748Z,6.70
2019-06-08T18:37:57.830Z,7.00
2019-06-08T18:40:27.288Z,7.10
2019-06-08T18:42:57.688Z,6.50
2019-06-08T18:45:27.666Z,7.33
2019-06-08T18:48:00.280Z,6.83
2019-06-08T18:50:30.305Z,7.70
2019-06-08T18:52:58.696Z,7.80
2019-06-08T18:55:27.714Z,6.93
2019-06-08T18:57:57.150Z,7.00
2019-06-08T19:00:39.790Z,7.80
2019-06-08T19:03:08.584Z,7.00
2019-06-08T19:05:40.200Z,7.43
2019-06-08T19:08:10.026Z,6.70
2019-06-08T19:10:41.081Z,6.77
2019-06-08T19:13:10.239Z,7.03
2019-06-08T19:15:42.486Z,7.43
2019-06-08T19:18:09.284Z,6.93
2019-06-08T19:20:42.884Z,7.00
2019-06-08T19:23:09.138Z,6.70
2019-06-08T19:25:42.104Z,7.13
2019-06-08T19:28:08.103Z,7.20
2019-06-08T19:30:39.440Z,7.43
2019-06-08T19:33:07.349Z,7.20
2019-06-08T19:35:35.872Z,7.20
2019-06-08T19:38:04.321Z,6.90
2019-06-08T19:40:33.013Z,6.50
2019-06-08T19:43:01.679Z,6.60
2019-06-08T19:45:30.178Z,6.60
2019-06-08T19:47:58.573Z,6.90
2019-06-08T19:50:28.689Z,7.60
2019-06-08T19:52:58.081Z,6.90
2019-06-08T19:55:26.657Z,7.50
2019-06-08T19:57:57.063Z,7.60
2019-06-08T20:00:27.515Z,7.27
2019-06-08T20:02:57.667Z,7.20
2019-06-08T20:05:27.892Z,7.80
2019-06-08T20:07:57.474Z,7.20
2019-06-08T20:10:28.044Z,7.47
2019-06-08T20:12:57.625Z,7.37
2019-06-08T20:15:26.229Z,7.63
2019-06-08T20:17:57.256Z,8.17
2019-06-08T20:20:24.767Z,8.20
2019-06-08T20:22:53.617Z,7.57
2019-06-08T20:25:22.019Z,8.20
2019-06-08T20:27:51.653Z,7.67
2019-06-08T20:30:20.354Z,8.10
2019-06-08T20:32:51.916Z,7.60
2019-06-08T20:35:19.151Z,7.70
2019-06-08T20:37:47.926Z,7.47
2019-06-08T20:40:17.986Z,7.73
2019-06-08T20:42:49.599Z,7.07
2019-06-08T20:45:17.339Z,7.53
2019-06-08T20:47:49.465Z,6.97
2019-06-08T20:50:17.637Z,7.00
2019-06-08T20:52:47.258Z,7.80
2019-06-08T20:55:17.481Z,7.20
2019-06-08T20:57:48.163Z,7.10
2019-06-08T21:00:16.599Z,8.23
2019-06-08T21:02:46.351Z,7.00
2019-06-08T21:05:15.112Z,7.27
2019-06-08T21:07:43.819Z,7.73
2019-06-08T21:10:13.698Z,8.00
2019-06-08T21:12:42.082Z,8.10
2019-06-08T21:15:11.296Z,7.80
2019-06-08T21:17:39.680Z,8.20
2019-06-08T21:20:08.677Z,7.60
2019-06-08T21:22:37.190Z,7.90
2019-06-08T21:25:08.955Z,7.77
2019-06-08T21:27:38.526Z,7.60
2019-06-08T21:30:19.943Z,7.93
2019-06-08T21:32:39.517Z,7.43
2019-06-08T21:35:18.184Z,7.70
2019-06-08T21:37:48.173Z,8.70
2019-06-08T21:40:17.596Z,7.40
2019-06-08T21:42:48.826Z,8.10
2019-06-08T21:45:18.745Z,8.03
2019-06-08T21:47:48.453Z,7.63
2019-06-08T21:50:18.632Z,8.07
2019-06-08T21:52:48.627Z,7.73
2019-06-08T21:55:17.753Z,8.33
2019-06-08T21:57:49.571Z,7.90
2019-06-08T22:00:38.095Z,8.20
2019-06-08T22:02:48.105Z,8.03
2019-06-08T22:05:19.209Z,7.47
2019-06-08T22:07:47.592Z,7.77
2019-06-08T22:10:17.948Z,8.67
2019-06-08T22:12:48.306Z,8.27
2019-06-08T22:15:18.279Z,8.30
2019-06-08T22:17:47.677Z,8.63
2019-06-08T22:20:18.476Z,8.50
2019-06-08T22:22:47.290Z,7.73
2019-06-08T22:25:17.515Z,8.70
2019-06-08T22:27:46.424Z,8.37
2019-06-08T22:30:34.740Z,8.40
2019-06-08T22:32:47.381Z,7.93
2019-06-08T22:35:16.296Z,8.93
2019-06-08T22:37:44.976Z,8.50
2019-06-08T22:40:13.712Z,8.33
2019-06-08T22:42:42.353Z,8.70
2019-06-08T22:45:11.089Z,8.37
2019-06-08T22:47:39.744Z,8.53
2019-06-08T22:50:08.769Z,9.03
2019-06-08T22:52:37.755Z,8.57
2019-06-08T22:55:10.710Z,8.60
2019-06-08T22:57:37.663Z,8.10
2019-06-08T23:00:14.522Z,8.80
2019-06-08T23:02:38.413Z,8.60
2019-06-08T23:05:08.941Z,8.37
2019-06-08T23:07:37.619Z,9.07
2019-06-08T23:10:09.409Z,8.50
2019-06-08T23:12:38.311Z,8.67
2019-06-08T23:15:08.889Z,8.17
2019-06-08T23:17:38.782Z,8.40
2019-06-08T23:20:08.732Z,8.50
2019-06-08T23:22:38.398Z,8.73
2019-06-08T23:25:09.553Z,9.37
2019-06-08T23:27:37.997Z,8.97
2019-06-08T23:30:10.210Z,9.20
2019-06-08T23:32:38.713Z,8.57
2019-06-08T23:35:09.456Z,9.07
2019-06-08T23:37:38.378Z,9.60
2019-06-08T23:40:07.865Z,8.50
2019-06-08T23:42:38.288Z,8.50
2019-06-08T23:45:10.527Z,8.40
2019-06-08T23:47:38.655Z,8.90
2019-06-08T23:50:11.251Z,8.70
2019-06-08T23:52:39.112Z,8.70
2019-06-08T23:55:10.488Z,8.27
2019-06-08T23:57:38.506Z,9.33
